Time;durP1;ratioP1;P1;durP2;ratioP2;P2;SDS_P1;SDS_P2;PMS_P1;PMS_P2;Temp;Humidity;BMP_temperature;BMP_pressure;BME280_temperature;BME280_humidity;BME280_pressure;Samples;Min_cycle;Max_cycle;Signal;HPM_P1;HPM_P2
2021/04/21 00:00:30;;;;;;;26.93;20.23;;;9.00;97.30;;;;;;5059461;28;20799;-87
2021/04/21 00:02:57;;;;;;;22.33;18.40;;;8.90;97.40;;;;;;5046247;28;20445;-87
2021/04/21 00:05:26;;;;;;;21.43;18.20;;;8.90;97.70;;;;;;5047231;28;20450;-86
2021/04/21 00:07:54;;;;;;;22.83;18.33;;;8.90;98.00;;;;;;5047639;28;20469;-86
2021/04/21 00:10:23;;;;;;;25.50;18.90;;;8.90;98.10;;;;;;5046716;28;20469;-87
2021/04/21 00:13:20;;;;;;;22.47;20.00;;;8.90;98.00;;;;;;5046007;28;20484;-86
2021/04/21 00:15:46;;;;;;;22.90;19.20;;;8.80;98.10;;;;;;5000931;28;20441;-87
2021/04/21 00:18:14;;;;;;;21.40;16.87;;;8.80;98.10;;;;;;5045153;28;20426;-87
2021/04/21 00:20:43;;;;;;;23.30;20.80;;;8.80;98.30;;;;;;5052582;28;20429;-88
2021/04/21 00:23:12;;;;;;;24.70;18.97;;;8.70;98.40;;;;;;5045377;28;20992;-87
2021/04/21 00:25:40;;;;;;;23.03;18.87;;;8.60;98.80;;;;;;5044211;28;20445;-87
2021/04/21 00:28:08;;;;;;;24.43;18.93;;;8.60;99.40;;;;;;5053386;28;20457;-88
2021/04/21 00:30:36;;;;;;;26.80;21.47;;;8.50;99.60;;;;;;5056118;28;20863;-87
2021/04/21 00:33:03;;;;;;;24.00;20.50;;;8.50;99.70;;;;;;5046030;28;20450;-87
2021/04/21 00:35:34;;;;;;;24.77;21.60;;;8.40;99.90;;;;;;5045248;28;20437;-87
2021/04/21 00:38:04;;;;;;;25.57;21.00;;;8.50;99.90;;;;;;5059563;28;20546;-86
2021/04/21 00:40:39;;;;;;;25.73;19.47;;;8.50;99.90;;;;;;5051647;28;20484;-87
2021/04/21 00:43:10;;;;;;;23.83;21.40;;;8.50;99.90;;;;;;5045464;28;20956;-87
2021/04/21 00:45:43;;;;;;;27.20;20.20;;;8.50;99.90;;;;;;5046497;28;20444;-86
2021/04/21 00:48:21;;;;;;;24.73;20.87;;;8.50;99.90;;;;;;5048152;28;20480;-87
2021/04/21 00:50:53;;;;;;;23.70;20.37;;;8.50;99.90;;;;;;5049376;28;20437;-87
2021/04/21 00:53:35;;;;;;;23.80;20.80;;;8.50;99.90;;;;;;5044528;28;20451;-87
2021/04/21 00:56:24;;;;;;;24.00;20.73;;;8.50;99.90;;;;;;5045166;28;20460;-87
2021/04/21 00:59:02;;;;;;;27.07;22.30;;;8.50;99.90;;;;;;5044830;28;20488;-87
2021/04/21 01:01:30;;;;;;;26.47;21.20;;;8.50;99.90;;;;;;5048128;28;20449;-87
2021/04/21 01:03:57;;;;;;;28.33;23.63;;;8.40;99.90;;;;;;5066419;28;20431;-86
2021/04/21 01:06:30;;;;;;;23.87;21.30;;;8.40;99.90;;;;;;5045825;28;20441;-87
2021/04/21 01:09:01;;;;;;;27.93;22.53;;;8.40;99.90;;;;;;5042521;28;21079;-86
2021/04/21 01:11:32;;;;;;;26.10;22.23;;;8.40;99.90;;;;;;5041747;28;20440;-87
2021/04/21 01:14:04;;;;;;;30.47;22.87;;;8.40;99.90;;;;;;5055245;28;20447;-87
2021/04/21 01:16:33;;;;;;;28.67;22.33;;;8.30;99.90;;;;;;5056218;28;20528;-87
2021/04/21 01:19:04;;;;;;;27.63;22.50;;;8.30;99.90;;;;;;5056423;28;20492;-87
2021/04/21 01:21:40;;;;;;;26.03;22.17;;;8.30;99.90;;;;;;5094115;22;20525;-87
2021/04/21 01:24:18;;;;;;;24.97;21.40;;;8.20;99.90;;;;;;5083907;28;20823;-87
2021/04/21 01:26:58;;;;;;;30.77;23.80;;;8.10;99.90;;;;;;5083539;28;20965;-87
2021/04/21 01:29:31;;;;;;;28.20;21.20;;;8.00;99.90;;;;;;5083812;28;20502;-87
2021/04/21 01:32:00;;;;;;;22.60;20.20;;;8.10;99.90;;;;;;5066026;28;20469;-87
2021/04/21 01:34:33;;;;;;;24.50;21.73;;;8.00;99.90;;;;;;5070401;28;20434;-86
2021/04/21 01:37:06;;;;;;;25.37;22.67;;;7.90;99.90;;;;;;5086127;28;20445;-86
2021/04/21 01:39:39;;;;;;;29.90;22.93;;;7.90;99.90;;;;;;5071256;28;20439;-86
2021/04/21 01:42:11;;;;;;;25.33;21.97;;;7.90;99.90;;;;;;5082365;28;20458;-87
2021/04/21 01:44:45;;;;;;;27.33;23.03;;;7.80;99.90;;;;;;5065473;28;20435;-87
2021/04/21 01:47:14;;;;;;;26.73;22.30;;;7.90;99.90;;;;;;5063051;28;20527;-87
2021/04/21 01:50:05;;;;;;;25.70;22.87;;;7.90;99.90;;;;;;5069015;28;20478;-87
2021/04/21 01:52:54;;;;;;;27.63;22.40;;;7.90;99.90;;;;;;5066533;28;21011;-86
2021/04/21 01:55:49;;;;;;;29.17;22.77;;;7.80;99.90;;;;;;5060878;28;20459;-87
2021/04/21 01:58:32;;;;;;;28.80;21.83;;;7.90;99.90;;;;;;5063564;28;20523;-86
2021/04/21 02:01:04;;;;;;;25.80;21.33;;;7.90;99.90;;;;;;5048879;28;20456;-87
2021/04/21 02:03:41;;;;;;;26.93;23.20;;;7.80;99.90;;;;;;5064118;28;20441;-87
2021/04/21 02:06:30;;;;;;;32.67;23.43;;;7.70;99.90;;;;;;5064158;28;20465;-87
2021/04/21 02:09:29;;;;;;;24.67;21.80;;;7.60;99.90;;;;;;5063374;28;20479;-87
2021/04/21 02:12:08;;;;;;;26.93;22.80;;;7.60;99.90;;;;;;5063382;28;20971;-84
2021/04/21 02:14:50;;;;;;;25.03;22.33;;;7.60;99.90;;;;;;5063930;28;20495;-84
2021/04/21 02:17:25;;;;;;;29.47;23.03;;;7.60;99.90;;;;;;5094564;28;20700;-83
2021/04/21 02:20:00;;;;;;;30.10;23.10;;;7.60;99.90;;;;;;5073029;28;20424;-84
2021/04/21 02:22:32;;;;;;;31.80;24.80;;;7.60;99.90;;;;;;5088437;28;20447;-84
2021/04/21 02:25:16;;;;;;;28.10;24.13;;;7.60;99.90;;;;;;5085026;28;20433;-86
2021/04/21 02:27:51;;;;;;;26.90;23.70;;;7.50;99.90;;;;;;5072289;28;20446;-85
2021/04/21 02:30:26;;;;;;;31.00;24.43;;;7.50;99.90;;;;;;5074477;28;20500;-86
2021/04/21 02:33:08;;;;;;;29.80;26.00;;;7.50;99.90;;;;;;5077909;28;20443;-85
2021/04/21 02:35:41;;;;;;;30.90;25.80;;;7.50;99.90;;;;;;5088316;28;20434;-85
2021/04/21 02:38:17;;;;;;;30.00;24.00;;;7.50;99.90;;;;;;5090180;28;20464;-86
2021/04/21 02:40:53;;;;;;;30.93;26.47;;;7.40;99.90;;;;;;5078054;28;20439;-86
2021/04/21 02:43:36;;;;;;;29.27;24.33;;;7.40;99.90;;;;;;5083632;28;20431;-85
2021/04/21 02:46:10;;;;;;;31.03;24.23;;;7.40;99.90;;;;;;5070315;28;20496;-86
2021/04/21 02:48:48;;;;;;;30.77;25.13;;;7.40;99.90;;;;;;5072087;28;20472;-85
2021/04/21 02:51:18;;;;;;;29.13;24.17;;;7.40;99.90;;;;;;5079989;28;20460;-86
2021/04/21 02:53:50;;;;;;;34.67;25.03;;;7.30;99.90;;;;;;5065128;28;20522;-86
2021/04/21 02:56:26;;;;;;;29.00;23.00;;;7.30;99.90;;;;;;5068774;28;20447;-86
2021/04/21 02:59:00;;;;;;;27.93;23.30;;;7.30;99.90;;;;;;5067098;28;20459;-86
2021/04/21 03:01:38;;;;;;;33.33;25.70;;;7.20;99.90;;;;;;5066569;28;20463;-86
2021/04/21 03:04:13;;;;;;;27.27;23.47;;;7.20;99.90;;;;;;5067630;28;20474;-86
2021/04/21 03:06:43;;;;;;;26.53;22.93;;;7.10;99.90;;;;;;5065691;28;20486;-86
2021/04/21 03:09:13;;;;;;;27.70;23.77;;;7.10;99.90;;;;;;5068306;28;20940;-86
2021/04/21 03:11:42;;;;;;;26.20;23.40;;;7.10;99.90;;;;;;5066361;28;20467;-87
2021/04/21 03:14:13;;;;;;;29.53;23.83;;;7.10;99.90;;;;;;5065788;28;20493;-87
2021/04/21 03:16:43;;;;;;;28.30;23.70;;;7.00;99.90;;;;;;5065106;28;20788;-86
2021/04/21 03:19:14;;;;;;;28.93;23.97;;;6.90;99.90;;;;;;5066781;28;20450;-86
2021/04/21 03:21:43;;;;;;;28.90;23.80;;;6.90;99.90;;;;;;5066515;28;20455;-86
2021/04/21 03:24:14;;;;;;;30.60;25.33;;;7.00;99.90;;;;;;5066821;28;20445;-86
2021/04/21 03:26:44;;;;;;;29.47;24.03;;;7.00;99.90;;;;;;5065869;28;20443;-86
2021/04/21 03:29:17;;;;;;;28.33;25.23;;;7.00;99.90;;;;;;5072384;28;20439;-87
2021/04/21 03:31:46;;;;;;;28.90;23.80;;;6.90;99.90;;;;;;5068175;28;20463;-86
2021/04/21 03:34:18;;;;;;;31.90;27.83;;;6.90;99.90;;;;;;5068267;28;20454;-86
2021/04/21 03:36:45;;;;;;;33.73;27.03;;;6.90;99.90;;;;;;5065575;28;20459;-87
2021/04/21 03:39:12;;;;;;;30.90;25.93;;;6.90;99.90;;;;;;5065172;28;20476;-84
2021/04/21 03:41:41;;;;;;;33.00;27.93;;;6.90;99.90;;;;;;5065237;28;20549;-84
2021/04/21 03:44:08;;;;;;;34.40;28.07;;;6.90;99.90;;;;;;5068679;28;20447;-87
2021/04/21 03:46:35;;;;;;;35.07;28.13;;;6.80;99.90;;;;;;5067607;28;20429;-85
2021/04/21 03:49:02;;;;;;;30.60;26.20;;;6.80;99.90;;;;;;5066415;28;20445;-85
2021/04/21 03:51:30;;;;;;;32.27;26.37;;;6.80;99.90;;;;;;5080282;28;20453;-86
2021/04/21 03:53:58;;;;;;;34.33;27.37;;;6.80;99.90;;;;;;5074963;28;20864;-87
2021/04/21 03:56:27;;;;;;;32.73;25.37;;;6.80;99.90;;;;;;5073798;28;20492;-87
2021/04/21 03:58:55;;;;;;;34.13;27.73;;;6.70;99.90;;;;;;5063506;28;20507;-87
2021/04/21 04:01:24;;;;;;;30.20;26.23;;;6.70;99.90;;;;;;5062941;28;20444;-86
2021/04/21 04:03:52;;;;;;;36.33;27.50;;;6.70;99.90;;;;;;5069148;28;20447;-87
2021/04/21 04:06:24;;;;;;;30.77;26.80;;;6.60;99.90;;;;;;5093909;28;20450;-86
2021/04/21 04:08:54;;;;;;;29.93;26.27;;;6.70;99.90;;;;;;5098730;28;20443;-86
2021/04/21 04:11:26;;;;;;;35.63;28.20;;;6.70;99.90;;;;;;5074964;28;20464;-84
2021/04/21 04:14:01;;;;;;;32.20;26.80;;;6.70;99.90;;;;;;5065298;28;20526;-85
2021/04/21 04:16:30;;;;;;;36.53;27.87;;;6.60;99.90;;;;;;5075635;28;20468;-84
2021/04/21 04:18:58;;;;;;;38.97;28.67;;;6.60;99.90;;;;;;5081776;28;20550;-84
2021/04/21 04:21:32;;;;;;;32.80;25.73;;;6.60;99.90;;;;;;5082048;28;20528;-86
2021/04/21 04:24:02;;;;;;;38.33;28.53;;;6.60;99.90;;;;;;5074833;28;20448;-86
2021/04/21 04:26:30;;;;;;;33.97;27.43;;;6.60;99.90;;;;;;5081801;28;20428;-86
2021/04/21 04:28:58;;;;;;;37.10;27.90;;;6.50;99.90;;;;;;5075620;28;20424;-86
2021/04/21 04:31:25;;;;;;;33.30;27.40;;;6.60;99.90;;;;;;5067148;28;20468;-86
2021/04/21 04:33:57;;;;;;;32.87;27.90;;;6.60;99.90;;;;;;5078303;28;20416;-86
2021/04/21 04:36:24;;;;;;;34.33;29.40;;;6.50;99.90;;;;;;5085889;28;20449;-85
2021/04/21 04:38:51;;;;;;;33.93;29.60;;;6.50;99.90;;;;;;5073808;28;20851;-86
2021/04/21 04:41:19;;;;;;;46.97;32.00;;;6.60;99.90;;;;;;5064989;28;20463;-87
2021/04/21 04:43:47;;;;;;;39.83;31.50;;;6.50;99.90;;;;;;5066088;28;20432;-87
2021/04/21 04:46:20;;;;;;;43.20;31.70;;;6.60;99.90;;;;;;5064200;28;20436;-87
2021/04/21 04:48:50;;;;;;;39.33;31.53;;;6.60;99.90;;;;;;5064697;28;20502;-87
2021/04/21 04:51:18;;;;;;;41.97;29.50;;;6.70;99.90;;;;;;5078259;28;20458;-86
2021/04/21 04:53:45;;;;;;;36.20;28.47;;;6.70;99.90;;;;;;5081818;28;20436;-86
2021/04/21 04:56:13;;;;;;;36.37;27.53;;;6.80;99.90;;;;;;5080572;28;20444;-86
2021/04/21 04:58:45;;;;;;;39.10;29.23;;;6.90;99.90;;;;;;5083559;28;20480;-86
2021/04/21 05:01:12;;;;;;;35.90;26.00;;;7.00;99.90;;;;;;5082879;28;20549;-86
2021/04/21 05:03:50;;;;;;;40.37;28.60;;;7.00;99.90;;;;;;5084805;28;20453;-87
2021/04/21 05:06:22;;;;;;;34.33;26.53;;;7.20;99.90;;;;;;5088241;28;20439;-85
2021/04/21 05:08:54;;;;;;;33.80;27.70;;;7.30;99.90;;;;;;5082728;28;20427;-85
2021/04/21 05:11:27;;;;;;;33.80;27.40;;;7.30;99.90;;;;;;5066691;28;21023;-86
2021/04/21 05:13:54;;;;;;;30.30;27.00;;;7.50;99.90;;;;;;5066948;28;21200;-86
2021/04/21 05:16:57;;;;;;;34.73;28.70;;;7.70;99.90;;;;;;5065077;28;20869;-86
2021/04/21 05:23:10;;;;;;;38.13;26.10;;;8.10;99.90;;;;;;5096355;22;20479;-87
2021/04/21 05:26:31;;;;;;;38.53;27.53;;;8.20;99.90;;;;;;5064468;28;20445;-87
2021/04/21 05:53:56;;;;;;;32.10;27.83;;;8.80;99.90;;;;;;4901352;29;20531;-86
2021/04/21 05:57:00;;;;;;;31.73;26.13;;;9.40;99.40;;;;;;4918162;29;20470;-91
2021/04/21 06:00:01;;;;;;;32.73;26.73;;;9.80;97.50;;;;;;4936235;29;20487;-87
2021/04/21 06:02:35;;;;;;;36.70;26.60;;;9.80;96.90;;;;;;4975602;28;20553;-87
2021/04/21 06:05:16;;;;;;;35.50;26.33;;;10.00;95.90;;;;;;5041011;28;20467;-87
2021/04/21 06:11:53;;;;;;;27.50;24.50;;;10.90;94.50;;;;;;5042774;28;20554;-87
2021/04/21 06:14:25;;;;;;;25.10;22.50;;;11.60;93.10;;;;;;5025149;28;20528;-87
2021/04/21 06:16:53;;;;;;;30.30;26.60;;;12.10;91.50;;;;;;5024523;28;20447;-87
2021/04/21 06:19:25;;;;;;;29.87;26.30;;;12.60;90.50;;;;;;5031500;28;20833;-87
2021/04/21 06:21:54;;;;;;;28.27;25.33;;;13.10;88.40;;;;;;5022776;28;20473;-86
2021/04/21 06:24:25;;;;;;;33.40;27.83;;;13.50;86.00;;;;;;5025846;28;20529;-87
2021/04/21 06:27:08;;;;;;;31.87;27.30;;;13.60;83.30;;;;;;5018115;28;20478;-87
2021/04/21 06:29:37;;;;;;;30.63;26.63;;;13.80;82.80;;;;;;5024916;28;20506;-87
2021/04/21 06:32:12;;;;;;;28.73;25.80;;;13.90;81.70;;;;;;5017728;28;20450;-86
2021/04/21 06:34:47;;;;;;;28.37;25.10;;;14.20;80.40;;;;;;5015461;28;20447;-86
2021/04/21 06:37:17;;;;;;;30.03;26.93;;;14.30;79.00;;;;;;5029828;28;20451;-87
2021/04/21 06:39:43;;;;;;;30.10;25.63;;;14.40;77.50;;;;;;5036407;28;20477;-87
2021/04/21 06:42:24;;;;;;;28.03;25.07;;;14.50;77.40;;;;;;5033856;28;20465;-86
2021/04/21 06:44:51;;;;;;;33.43;25.63;;;14.90;76.30;;;;;;5033499;28;20474;-87
2021/04/21 06:47:20;;;;;;;30.13;26.90;;;15.10;75.70;;;;;;5031400;28;20465;-87
2021/04/21 06:49:58;;;;;;;28.10;24.80;;;15.10;75.20;;;;;;5046462;28;20453;-87
2021/04/21 06:52:36;;;;;;;29.20;26.10;;;15.60;73.90;;;;;;5036847;28;20457;-87
2021/04/21 06:55:05;;;;;;;33.63;25.10;;;15.70;73.00;;;;;;5033725;28;20580;-87
2021/04/21 06:57:33;;;;;;;27.43;24.47;;;16.00;72.80;;;;;;5015737;28;20457;-87
2021/04/21 07:00:05;;;;;;;31.70;25.03;;;16.20;71.40;;;;;;5014718;28;20488;-87
2021/04/21 07:02:35;;;;;;;28.30;25.47;;;16.50;70.20;;;;;;5017934;28;20450;-88
2021/04/21 07:05:01;;;;;;;27.90;24.90;;;16.80;68.80;;;;;;5014677;28;20450;-87
2021/04/21 07:07:27;;;;;;;26.23;23.70;;;17.00;67.50;;;;;;5042472;28;20467;-86
2021/04/21 07:09:55;;;;;;;26.20;23.80;;;17.10;66.50;;;;;;5048291;28;20441;-87
2021/04/21 07:12:22;;;;;;;25.70;23.40;;;17.10;66.00;;;;;;5051474;28;20429;-87
2021/04/21 07:14:49;;;;;;;25.97;23.27;;;17.10;65.70;;;;;;5035389;28;20452;-86
2021/04/21 07:17:17;;;;;;;28.03;25.30;;;16.90;66.50;;;;;;5033639;28;20544;-86
2021/04/21 07:19:45;;;;;;;25.83;23.33;;;16.90;66.60;;;;;;5033319;28;20535;-86
2021/04/21 07:29:09;;;;;;;27.40;24.70;;;18.30;63.50;;;;;;4988933;28;20466;-87
2021/04/21 07:35:26;;;;;;;26.60;24.13;;;19.20;61.30;;;;;;4928265;29;20544;-88
2021/04/21 07:48:37;;;;;;;26.73;24.30;;;21.10;55.90;;;;;;4835600;29;20440;-90
2021/04/21 07:58:38;;;;;;;27.23;24.30;;;20.50;56.50;;;;;;5002124;28;20461;-89
2021/04/21 08:01:37;;;;;;;24.93;22.37;;;21.00;56.40;;;;;;4947888;28;20497;-89
2021/04/21 08:04:17;;;;;;;27.40;24.57;;;21.20;55.60;;;;;;5037691;28;20916;-87
2021/04/21 08:07:28;;;;;;;26.60;24.10;;;22.10;54.70;;;;;;5035835;28;20517;-88
2021/04/21 08:14:05;;;;;;;27.93;25.50;;;21.80;53.70;;;;;;5011046;28;20911;-89
2021/04/21 08:38:54;;;;;;;;;;;;;;;;;;;;;
2021/04/21 08:49:08;;;;;;;26.47;24.20;;;25.90;43.90;;;;;;4926212;29;20799;-89
2021/04/21 08:51:55;;;;;;;26.77;24.47;;;27.20;42.70;;;;;;4958155;28;20485;-88
2021/04/21 08:58:18;;;;;;;25.63;23.43;;;28.30;40.30;;;;;;5037426;28;20514;-89
2021/04/21 09:10:49;;;;;;;23.93;21.90;;;31.10;35.80;;;;;;5000925;28;20535;-88
2021/04/21 09:16:36;;;;;;;22.33;20.07;;;29.80;36.10;;;;;;4992635;28;20486;-89
2021/04/21 09:19:45;;;;;;;21.80;20.10;;;30.60;35.90;;;;;;4993655;28;20497;-89
2021/04/21 09:22:47;;;;;;;21.77;20.07;;;31.30;34.10;;;;;;4947787;28;20610;-89
2021/04/21 09:25:58;;;;;;;22.07;20.37;;;30.50;34.00;;;;;;4972895;28;20523;-89
2021/04/21 09:32:27;;;;;;;22.17;20.37;;;30.90;34.40;;;;;;4979725;28;20962;-88
2021/04/21 09:34:55;;;;;;;13.47;12.37;;;31.70;33.50;;;;;;5022183;28;20502;-87
2021/04/21 09:37:25;;;;;;;20.17;18.63;;;32.10;35.00;;;;;;5023521;28;20802;-84
2021/04/21 09:39:51;;;;;;;21.23;19.23;;;32.40;33.30;;;;;;5042115;28;20453;-84
2021/04/21 09:42:28;;;;;;;21.73;19.93;;;31.90;32.60;;;;;;5065557;28;20513;-82
2021/04/21 09:44:55;;;;;;;21.27;19.47;;;31.50;32.80;;;;;;5063227;28;20437;-85
2021/04/21 09:47:22;;;;;;;20.10;18.40;;;31.80;33.00;;;;;;5043620;28;20476;-86
2021/04/21 09:49:55;;;;;;;19.67;18.00;;;32.40;31.80;;;;;;5052884;28;20468;-85
2021/04/21 09:52:29;;;;;;;21.43;19.70;;;33.10;31.40;;;;;;5051865;28;20456;-85
2021/04/21 09:54:56;;;;;;;20.47;18.80;;;32.40;30.50;;;;;;5051014;28;20493;-85
2021/04/21 09:57:27;;;;;;;21.53;19.83;;;31.90;31.10;;;;;;5043987;28;20437;-84
2021/04/21 09:59:59;;;;;;;17.20;15.83;;;31.00;31.20;;;;;;5045891;28;20476;-84
2021/04/21 10:02:34;;;;;;;19.57;17.97;;;32.40;30.40;;;;;;5039299;28;20519;-84
2021/04/21 10:05:22;;;;;;;19.27;17.67;;;30.60;30.80;;;;;;5039372;28;20817;-85
2021/04/21 10:08:12;;;;;;;17.70;16.30;;;30.50;31.80;;;;;;5043759;28;20441;-85
2021/04/21 10:10:39;;;;;;;18.03;16.53;;;32.10;30.00;;;;;;5062280;28;20464;-85
2021/04/21 10:13:17;;;;;;;17.23;15.83;;;33.20;29.20;;;;;;5062474;28;20507;-86
2021/04/21 10:15:44;;;;;;;16.30;15.00;;;33.60;28.30;;;;;;5059663;28;20440;-85
2021/04/21 10:18:13;;;;;;;17.50;16.17;;;34.30;27.60;;;;;;5044291;28;20495;-85
2021/04/21 10:20:41;;;;;;;17.50;16.10;;;34.10;27.30;;;;;;5046664;28;20468;-84
2021/04/21 10:23:07;;;;;;;18.67;17.20;;;32.50;27.70;;;;;;5045407;28;20449;-84
2021/04/21 10:25:35;;;;;;;16.10;14.90;;;31.60;28.60;;;;;;5049048;28;20440;-85
2021/04/21 10:28:02;;;;;;;13.80;12.70;;;32.60;27.90;;;;;;5048585;28;20431;-84
2021/04/21 10:30:29;;;;;;;13.97;12.77;;;33.10;26.80;;;;;;5044812;28;20531;-86
2021/04/21 10:32:55;;;;;;;12.17;11.17;;;33.70;26.20;;;;;;5045701;28;20489;-85
2021/04/21 10:35:22;;;;;;;14.33;13.07;;;34.40;26.30;;;;;;5045367;28;20453;-85
2021/04/21 10:37:49;;;;;;;15.63;14.33;;;34.20;25.90;;;;;;5064206;28;20982;-84
2021/04/21 10:40:25;;;;;;;13.97;12.87;;;33.20;26.50;;;;;;5063270;28;21009;-84
2021/04/21 10:42:53;;;;;;;16.73;15.23;;;33.10;26.70;;;;;;5065737;28;20456;-85
2021/04/21 10:45:21;;;;;;;14.70;13.47;;;32.90;26.50;;;;;;5053981;28;20453;-85
2021/04/21 10:47:49;;;;;;;14.83;13.63;;;33.30;26.40;;;;;;5041042;28;20449;-85
2021/04/21 10:50:35;;;;;;;14.90;13.80;;;32.30;27.00;;;;;;5037100;28;20485;-84
2021/04/21 10:53:01;;;;;;;14.80;13.70;;;33.50;27.50;;;;;;5042767;28;20476;-85
2021/04/21 10:55:39;;;;;;;14.17;13.07;;;35.10;25.70;;;;;;5051138;28;20452;-85
2021/04/21 10:58:09;;;;;;;13.00;11.80;;;35.10;25.30;;;;;;5057555;28;20444;-86
2021/04/21 11:00:37;;;;;;;14.47;13.20;;;35.90;25.00;;;;;;5043859;28;20461;-86
2021/04/21 11:03:08;;;;;;;14.20;13.20;;;37.30;23.90;;;;;;5032475;28;20509;-86
2021/04/21 11:05:47;;;;;;;14.90;13.67;;;38.00;23.30;;;;;;5051818;28;20535;-88
2021/04/21 11:08:16;;;;;;;13.50;12.30;;;38.40;22.70;;;;;;5029786;28;20502;-87
2021/04/21 11:10:46;;;;;;;14.57;13.27;;;38.20;22.30;;;;;;5062991;28;20471;-85
2021/04/21 11:13:14;;;;;;;12.30;11.40;;;37.60;22.60;;;;;;5073323;28;20535;-87
2021/04/21 11:15:43;;;;;;;15.37;14.27;;;37.70;22.30;;;;;;5061782;28;20435;-86
2021/04/21 11:18:28;;;;;;;13.13;12.20;;;35.40;22.90;;;;;;5067804;28;20440;-86
2021/04/21 11:21:02;;;;;;;13.90;12.67;;;31.70;24.80;;;;;;5069485;28;20460;-84
2021/04/21 11:23:50;;;;;;;14.70;13.40;;;30.30;26.80;;;;;;5059331;28;20456;-87
2021/04/21 11:26:46;;;;;;;12.20;11.20;;;31.00;26.90;;;;;;5044681;28;20468;-85
2021/04/21 11:29:14;;;;;;;12.80;11.87;;;33.10;24.40;;;;;;5045060;28;20477;-86
2021/04/21 11:32:09;;;;;;;13.70;12.60;;;33.40;23.80;;;;;;5049104;28;20469;-84
2021/04/21 11:34:38;;;;;;;14.53;13.23;;;32.30;25.20;;;;;;5059264;28;20457;-86
2021/04/21 11:37:09;;;;;;;13.13;12.07;;;32.10;25.20;;;;;;5050545;28;20516;-86
2021/04/21 11:40:05;;;;;;;10.77;9.97;;;31.30;25.50;;;;;;5041515;28;20956;-85
2021/04/21 11:42:46;;;;;;;14.50;13.37;;;32.70;25.60;;;;;;5039469;28;20477;-85
2021/04/21 11:45:24;;;;;;;11.97;10.77;;;34.10;25.00;;;;;;5049448;28;20483;-86
2021/04/21 11:47:53;;;;;;;12.93;11.77;;;35.00;24.50;;;;;;5065073;28;20479;-84
2021/04/21 11:50:31;;;;;;;12.93;11.97;;;36.80;23.40;;;;;;5059242;28;20484;-86
2021/04/21 11:59:15;;;;;;;11.67;10.47;;;36.20;22.80;;;;;;5035515;28;21085;-87
2021/04/21 12:01:44;;;;;;;11.60;10.60;;;36.90;22.00;;;;;;5045892;28;20468;-85
2021/04/21 12:04:18;;;;;;;11.67;10.77;;;37.30;21.30;;;;;;5038710;28;20453;-86
2021/04/21 12:06:48;;;;;;;11.23;10.40;;;36.10;22.20;;;;;;5046048;28;20455;-86
2021/04/21 12:09:38;;;;;;;11.07;10.17;;;36.10;22.10;;;;;;5037665;28;20493;-86
2021/04/21 12:12:05;;;;;;;11.70;10.70;;;36.10;22.30;;;;;;5036471;28;21072;-86
2021/04/21 12:14:36;;;;;;;9.70;8.97;;;36.70;21.50;;;;;;5026387;28;20449;-87
2021/04/21 12:17:22;;;;;;;10.77;9.87;;;36.80;20.90;;;;;;5056620;28;20467;-86
2021/04/21 12:20:32;;;;;;;8.73;8.10;;;34.60;21.90;;;;;;5016830;28;20454;-86
2021/04/21 12:23:05;;;;;;;10.43;9.60;;;33.90;22.30;;;;;;5031835;28;20949;-87
2021/04/21 12:25:47;;;;;;;9.20;8.40;;;35.10;22.80;;;;;;5041794;28;20449;-85
2021/04/21 12:28:13;;;;;;;9.43;8.70;;;35.20;21.90;;;;;;5026681;28;20476;-87
2021/04/21 12:30:43;;;;;;;8.33;7.63;;;36.00;21.20;;;;;;5036978;28;20484;-86
2021/04/21 12:33:16;;;;;;;9.77;8.93;;;35.00;20.70;;;;;;5050353;28;20458;-86
2021/04/21 12:35:58;;;;;;;9.73;9.03;;;35.30;21.60;;;;;;5060523;28;20526;-86
2021/04/21 12:38:31;;;;;;;9.50;8.73;;;34.10;21.80;;;;;;5058361;28;20930;-87
2021/04/21 12:41:00;;;;;;;10.07;9.27;;;34.50;22.30;;;;;;5067219;28;20456;-85
2021/04/21 12:43:33;;;;;;;12.90;11.80;;;35.80;21.70;;;;;;5075338;28;20543;-86
2021/04/21 12:46:25;;;;;;;12.70;11.60;;;35.70;21.50;;;;;;5051020;28;20485;-85
2021/04/21 12:49:02;;;;;;;14.73;13.37;;;35.00;21.90;;;;;;5035865;28;20485;-85
2021/04/21 12:51:30;;;;;;;14.00;12.80;;;35.70;22.20;;;;;;5054381;28;20481;-86
2021/04/21 12:53:58;;;;;;;13.37;12.27;;;35.90;21.90;;;;;;5074972;28;20440;-86
2021/04/21 12:56:35;;;;;;;15.03;13.63;;;35.90;22.20;;;;;;5062349;28;20448;-86
2021/04/21 12:59:13;;;;;;;12.27;11.23;;;36.90;21.80;;;;;;5075600;28;20455;-86
2021/04/21 13:01:39;;;;;;;11.60;10.80;;;37.40;21.30;;;;;;5056274;28;20981;-86
2021/04/21 13:04:06;;;;;;;13.70;12.27;;;37.10;21.00;;;;;;5037292;28;20449;-85
2021/04/21 13:06:43;;;;;;;14.73;13.60;;;36.20;21.40;;;;;;5037336;28;20600;-85
2021/04/21 13:09:12;;;;;;;14.33;13.13;;;36.20;21.80;;;;;;5052610;28;20476;-84
2021/04/21 13:11:41;;;;;;;13.50;12.20;;;34.70;22.60;;;;;;5056385;28;20471;-85
2021/04/21 13:14:09;;;;;;;15.57;13.00;;;32.70;23.70;;;;;;5058026;28;20460;-85
2021/04/21 13:16:38;;;;;;;16.43;14.80;;;30.80;25.30;;;;;;5061779;28;20618;-85
2021/04/21 13:19:35;;;;;;;13.93;12.73;;;29.00;26.60;;;;;;5052978;28;20605;-85
2021/04/21 13:22:07;;;;;;;10.37;9.57;;;28.10;28.10;;;;;;4971214;28;20528;-84
2021/04/21 13:24:48;;;;;;;9.53;8.73;;;27.40;28.20;;;;;;5006753;28;20535;-85
2021/04/21 13:27:18;;;;;;;9.27;8.57;;;26.80;27.80;;;;;;5055839;28;20444;-86
2021/04/21 13:29:55;;;;;;;7.90;7.20;;;26.60;28.80;;;;;;5056952;28;20504;-87
2021/04/21 13:32:28;;;;;;;8.10;7.40;;;26.20;27.70;;;;;;5057704;28;20976;-84
2021/04/21 13:35:01;;;;;;;7.20;6.60;;;26.70;27.40;;;;;;5054399;28;20462;-85
2021/04/21 13:40:28;;;;;;;9.07;7.07;;;28.90;26.00;;;;;;5043471;28;20451;-87
2021/04/21 13:43:00;;;;;;;8.50;7.87;;;31.10;24.70;;;;;;5042997;28;20473;-84
2021/04/21 13:45:32;;;;;;;10.03;9.13;;;31.80;23.60;;;;;;5045183;28;20441;-85
2021/04/21 13:48:00;;;;;;;9.27;8.40;;;31.90;22.80;;;;;;5059039;28;20464;-85
2021/04/21 13:50:29;;;;;;;8.13;7.47;;;30.60;24.20;;;;;;5057830;28;20486;-86
2021/04/21 13:52:56;;;;;;;9.40;8.60;;;28.90;25.20;;;;;;5056982;28;20542;-85
2021/04/21 13:55:22;;;;;;;9.13;8.07;;;27.70;26.80;;;;;;5053006;28;20468;-84
2021/04/21 13:57:56;;;;;;;8.10;7.40;;;26.90;27.30;;;;;;5061483;28;21000;-85
2021/04/21 14:00:26;;;;;;;9.40;8.60;;;26.10;28.20;;;;;;5051572;28;20471;-85
2021/04/21 14:02:55;;;;;;;10.43;7.60;;;25.70;28.70;;;;;;5043347;28;20453;-85
2021/04/21 14:05:22;;;;;;;8.13;7.43;;;26.10;29.20;;;;;;5045334;28;21266;-85
2021/04/21 14:08:01;;;;;;;9.37;8.57;;;28.30;28.60;;;;;;5043112;28;20452;-88
2021/04/21 14:10:49;;;;;;;8.97;8.27;;;29.50;26.90;;;;;;5037179;28;20480;-83
2021/04/21 14:13:28;;;;;;;9.23;8.53;;;31.30;27.10;;;;;;5047144;28;20552;-82
2021/04/21 14:15:55;;;;;;;10.60;9.70;;;32.60;25.70;;;;;;5042351;28;20445;-81
2021/04/21 14:18:21;;;;;;;9.90;9.00;;;32.10;25.70;;;;;;5037086;28;20445;-82
2021/04/21 14:20:47;;;;;;;11.50;10.40;;;31.20;25.40;;;;;;5051884;28;20459;-81
2021/04/21 14:23:13;;;;;;;11.77;10.77;;;29.50;26.30;;;;;;5057766;28;20453;-80
2021/04/21 14:25:40;;;;;;;10.17;9.30;;;28.50;27.60;;;;;;5057419;28;20441;-81
2021/04/21 14:28:06;;;;;;;11.90;8.70;;;27.30;28.80;;;;;;5054244;28;20444;-81
2021/04/21 14:30:32;;;;;;;9.77;8.17;;;26.40;29.90;;;;;;5041151;28;20488;-81
2021/04/21 14:32:59;;;;;;;11.30;9.30;;;25.70;30.30;;;;;;5042290;28;21018;-80
2021/04/21 14:35:26;;;;;;;9.83;9.00;;;25.20;31.20;;;;;;5049147;28;20441;-81
2021/04/21 14:37:54;;;;;;;9.20;8.30;;;24.80;32.70;;;;;;5048337;28;20441;-81
2021/04/21 14:40:20;;;;;;;9.37;8.50;;;24.60;32.20;;;;;;5047953;28;20455;-81
2021/04/21 14:42:47;;;;;;;8.83;8.03;;;24.90;32.60;;;;;;5044428;28;20441;-80
2021/04/21 14:45:14;;;;;;;10.00;9.00;;;25.90;31.70;;;;;;5047610;28;20448;-86
2021/04/21 14:47:40;;;;;;;9.87;9.17;;;26.90;29.60;;;;;;5056452;28;20413;-87
2021/04/21 14:50:14;;;;;;;9.30;8.50;;;28.00;28.40;;;;;;5072415;28;20466;-86
2021/04/21 14:52:41;;;;;;;7.97;7.27;;;28.40;27.90;;;;;;5058491;28;20436;-86
2021/04/21 14:55:08;;;;;;;7.33;6.73;;;28.80;27.40;;;;;;5054476;28;20445;-87
2021/04/21 14:57:35;;;;;;;6.60;6.00;;;28.90;26.70;;;;;;5046058;28;20438;-86
2021/04/21 15:00:04;;;;;;;7.20;6.60;;;28.80;26.30;;;;;;5054826;28;20447;-86
2021/04/21 15:02:30;;;;;;;7.77;7.07;;;29.40;26.10;;;;;;5057087;28;20463;-85
2021/04/21 15:04:57;;;;;;;7.03;6.50;;;29.80;25.90;;;;;;5042728;28;20464;-86
2021/04/21 15:07:24;;;;;;;7.53;6.83;;;29.70;25.50;;;;;;5042616;28;20458;-86
2021/04/21 15:09:51;;;;;;;6.57;6.00;;;29.00;26.10;;;;;;5040278;28;20507;-87
2021/04/21 15:12:18;;;;;;;7.30;6.70;;;28.90;26.30;;;;;;5039802;28;20461;-87